sensor_id;sensor_type;location;lat;lon;timestamp;P1;durP1;ratioP1;P2;durP2;ratioP2
29812;SDS011;16707;48.106;11.548;2023-04-16T00:00:58;5.72;;;3.35;;
29812;SDS011;16707;48.106;11.548;2023-04-16T00:03:39;5.05;;;3.72;;
29812;SDS011;16707;48.106;11.548;2023-04-16T00:06:11;4.30;;;3.38;;
29812;SDS011;16707;48.106;11.548;2023-04-16T00:08:40;4.47;;;3.10;;
29812;SDS011;16707;48.106;11.548;2023-04-16T00:11:10;5.45;;;3.63;;
29812;SDS011;16707;48.106;11.548;2023-04-16T00:13:37;5.22;;;3.80;;
29812;SDS011;16707;48.106;11.548;2023-04-16T00:16:06;4.70;;;3.35;;
29812;SDS011;16707;48.106;11.548;2023-04-16T00:18:34;5.22;;;3.70;;
29812;SDS011;16707;48.106;11.548;2023-04-16T00:21:01;5.07;;;3.47;;
29812;SDS011;16707;48.106;11.548;2023-04-16T00:23:28;6.10;;;4.25;;
29812;SDS011;16707;48.106;11.548;2023-04-16T00:25:58;3.83;;;3.45;;
29812;SDS011;16707;48.106;11.548;2023-04-16T00:28:24;5.20;;;3.65;;
29812;SDS011;16707;48.106;11.548;2023-04-16T00:30:55;5.43;;;4.30;;
29812;SDS011;16707;48.106;11.548;2023-04-16T00:33:27;5.50;;;3.75;;
29812;SDS011;16707;48.106;11.548;2023-04-16T00:35:58;5.63;;;3.63;;
29812;SDS011;16707;48.106;11.548;2023-04-16T00:38:25;7.78;;;4.13;;
29812;SDS011;16707;48.106;11.548;2023-04-16T00:40:54;6.15;;;3.63;;
29812;SDS011;16707;48.106;11.548;2023-04-16T00:43:23;5.65;;;3.72;;
29812;SDS011;16707;48.106;11.548;2023-04-16T00:45:52;5.00;;;3.97;;
29812;SDS011;16707;48.106;11.548;2023-04-16T00:48:32;5.57;;;4.07;;
29812;SDS011;16707;48.106;11.548;2023-04-16T00:51:05;6.20;;;4.25;;
29812;SDS011;16707;48.106;11.548;2023-04-16T00:53:36;4.97;;;3.85;;
29812;SDS011;16707;48.106;11.548;2023-04-16T00:56:06;4.65;;;3.75;;
29812;SDS011;16707;48.106;11.548;2023-04-16T00:58:34;6.05;;;3.58;;
29812;SDS011;16707;48.106;11.548;2023-04-16T01:01:02;6.88;;;4.20;;
29812;SDS011;16707;48.106;11.548;2023-04-16T01:03:38;5.90;;;3.97;;
29812;SDS011;16707;48.106;11.548;2023-04-16T01:06:23;5.15;;;3.72;;
29812;SDS011;16707;48.106;11.548;2023-04-16T01:08:56;4.90;;;3.72;;
29812;SDS011;16707;48.106;11.548;2023-04-16T01:11:26;5.95;;;4.10;;
29812;SDS011;16707;48.106;11.548;2023-04-16T01:13:53;4.68;;;3.40;;
29812;SDS011;16707;48.106;11.548;2023-04-16T01:16:30;5.25;;;3.28;;
29812;SDS011;16707;48.106;11.548;2023-04-16T01:18:59;4.43;;;3.42;;
29812;SDS011;16707;48.106;11.548;2023-04-16T01:21:32;5.78;;;3.65;;
29812;SDS011;16707;48.106;11.548;2023-04-16T01:24:06;4.75;;;3.65;;
29812;SDS011;16707;48.106;11.548;2023-04-16T01:26:38;4.85;;;3.60;;
29812;SDS011;16707;48.106;11.548;2023-04-16T01:29:11;5.55;;;3.67;;
29812;SDS011;16707;48.106;11.548;2023-04-16T01:31:40;5.85;;;4.07;;
29812;SDS011;16707;48.106;11.548;2023-04-16T01:34:12;8.30;;;4.38;;
29812;SDS011;16707;48.106;11.548;2023-04-16T01:36:41;5.97;;;4.45;;
29812;SDS011;16707;48.106;11.548;2023-04-16T01:39:19;6.35;;;4.18;;
29812;SDS011;16707;48.106;11.548;2023-04-16T01:41:55;6.32;;;4.35;;
29812;SDS011;16707;48.106;11.548;2023-04-16T01:44:22;6.05;;;4.45;;
29812;SDS011;16707;48.106;11.548;2023-04-16T01:46:54;5.60;;;4.32;;
29812;SDS011;16707;48.106;11.548;2023-04-16T01:49:28;6.75;;;4.53;;
29812;SDS011;16707;48.106;11.548;2023-04-16T01:52:00;5.43;;;3.90;;
29812;SDS011;16707;48.106;11.548;2023-04-16T01:54:32;6.35;;;3.53;;
29812;SDS011;16707;48.106;11.548;2023-04-16T01:57:00;4.93;;;3.72;;
29812;SDS011;16707;48.106;11.548;2023-04-16T01:59:33;5.43;;;4.28;;
29812;SDS011;16707;48.106;11.548;2023-04-16T02:02:05;6.28;;;3.83;;
29812;SDS011;16707;48.106;11.548;2023-04-16T02:04:35;5.15;;;3.83;;
29812;SDS011;16707;48.106;11.548;2023-04-16T02:07:04;5.32;;;3.72;;
29812;SDS011;16707;48.106;11.548;2023-04-16T02:09:35;8.75;;;4.03;;
29812;SDS011;16707;48.106;11.548;2023-04-16T02:12:08;5.95;;;3.95;;
29812;SDS011;16707;48.106;11.548;2023-04-16T02:14:36;6.15;;;3.80;;
29812;SDS011;16707;48.106;11.548;2023-04-16T02:17:03;5.88;;;3.63;;
29812;SDS011;16707;48.106;11.548;2023-04-16T02:19:30;5.93;;;4.80;;
29812;SDS011;16707;48.106;11.548;2023-04-16T02:22:01;6.72;;;4.20;;
29812;SDS011;16707;48.106;11.548;2023-04-16T02:24:29;6.15;;;4.20;;
29812;SDS011;16707;48.106;11.548;2023-04-16T02:27:04;5.57;;;4.00;;
29812;SDS011;16707;48.106;11.548;2023-04-16T02:29:31;5.78;;;3.72;;
29812;SDS011;16707;48.106;11.548;2023-04-16T02:32:11;5.45;;;3.78;;
29812;SDS011;16707;48.106;11.548;2023-04-16T02:34:38;8.35;;;4.20;;
29812;SDS011;16707;48.106;11.548;2023-04-16T02:37:09;6.95;;;4.05;;
29812;SDS011;16707;48.106;11.548;2023-04-16T02:39:40;6.93;;;4.15;;
29812;SDS011;16707;48.106;11.548;2023-04-16T02:42:19;6.60;;;4.15;;
29812;SDS011;16707;48.106;11.548;2023-04-16T02:44:49;7.95;;;4.30;;
29812;SDS011;16707;48.106;11.548;2023-04-16T02:47:19;5.13;;;3.92;;
29812;SDS011;16707;48.106;11.548;2023-04-16T02:49:49;6.22;;;4.50;;
29812;SDS011;16707;48.106;11.548;2023-04-16T02:52:17;5.55;;;3.60;;
29812;SDS011;16707;48.106;11.548;2023-04-16T02:54:49;7.32;;;4.13;;
29812;SDS011;16707;48.106;11.548;2023-04-16T02:57:24;6.72;;;4.13;;
29812;SDS011;16707;48.106;11.548;2023-04-16T02:59:51;6.60;;;4.25;;
29812;SDS011;16707;48.106;11.548;2023-04-16T03:02:21;7.18;;;4.22;;
29812;SDS011;16707;48.106;11.548;2023-04-16T03:04:51;5.05;;;3.75;;
29812;SDS011;16707;48.106;11.548;2023-04-16T03:07:24;6.88;;;3.67;;
29812;SDS011;16707;48.106;11.548;2023-04-16T03:09:55;4.93;;;3.63;;
29812;SDS011;16707;48.106;11.548;2023-04-16T03:12:25;5.25;;;3.80;;
29812;SDS011;16707;48.106;11.548;2023-04-16T03:14:56;5.30;;;3.63;;
29812;SDS011;16707;48.106;11.548;2023-04-16T03:17:26;4.38;;;3.15;;
29812;SDS011;16707;48.106;11.548;2023-04-16T03:20:05;5.00;;;3.47;;
29812;SDS011;16707;48.106;11.548;2023-04-16T03:22:36;4.47;;;3.10;;
29812;SDS011;16707;48.106;11.548;2023-04-16T03:25:06;6.35;;;3.17;;
29812;SDS011;16707;48.106;11.548;2023-04-16T03:27:40;5.68;;;3.33;;
29812;SDS011;16707;48.106;11.548;2023-04-16T03:30:10;4.38;;;3.42;;
29812;SDS011;16707;48.106;11.548;2023-04-16T03:32:40;4.05;;;3.00;;
29812;SDS011;16707;48.106;11.548;2023-04-16T03:35:08;5.55;;;3.45;;
29812;SDS011;16707;48.106;11.548;2023-04-16T03:37:38;4.95;;;3.22;;
29812;SDS011;16707;48.106;11.548;2023-04-16T03:40:07;4.03;;;2.70;;
29812;SDS011;16707;48.106;11.548;2023-04-16T03:42:37;5.78;;;3.47;;
29812;SDS011;16707;48.106;11.548;2023-04-16T03:45:09;3.85;;;3.05;;
29812;SDS011;16707;48.106;11.548;2023-04-16T03:47:43;3.53;;;2.85;;
29812;SDS011;16707;48.106;11.548;2023-04-16T03:50:17;4.00;;;3.47;;
29812;SDS011;16707;48.106;11.548;2023-04-16T03:52:46;3.95;;;2.97;;
29812;SDS011;16707;48.106;11.548;2023-04-16T03:55:15;3.92;;;3.20;;
29812;SDS011;16707;48.106;11.548;2023-04-16T03:57:44;3.65;;;2.78;;
29812;SDS011;16707;48.106;11.548;2023-04-16T04:00:20;4.40;;;2.80;;
29812;SDS011;16707;48.106;11.548;2023-04-16T04:02:50;4.10;;;2.90;;
29812;SDS011;16707;48.106;11.548;2023-04-16T04:05:26;4.30;;;3.03;;
29812;SDS011;16707;48.106;11.548;2023-04-16T04:08:09;4.45;;;2.72;;
29812;SDS011;16707;48.106;11.548;2023-04-16T04:13:15;5.82;;;3.58;;
29812;SDS011;16707;48.106;11.548;2023-04-16T04:15:53;4.68;;;3.53;;
29812;SDS011;16707;48.106;11.548;2023-04-16T04:18:28;5.22;;;3.80;;
29812;SDS011;16707;48.106;11.548;2023-04-16T04:21:03;5.45;;;3.75;;
29812;SDS011;16707;48.106;11.548;2023-04-16T04:23:31;5.22;;;3.63;;
29812;SDS011;16707;48.106;11.548;2023-04-16T04:26:07;4.72;;;3.50;;
29812;SDS011;16707;48.106;11.548;2023-04-16T04:28:36;4.40;;;3.45;;
29812;SDS011;16707;48.106;11.548;2023-04-16T04:31:18;5.55;;;3.80;;
29812;SDS011;16707;48.106;11.548;2023-04-16T04:33:45;5.13;;;3.65;;
29812;SDS011;16707;48.106;11.548;2023-04-16T04:36:15;4.57;;;3.58;;
29812;SDS011;16707;48.106;11.548;2023-04-16T04:38:43;4.35;;;3.60;;
29812;SDS011;16707;48.106;11.548;2023-04-16T04:41:15;4.95;;;3.58;;
29812;SDS011;16707;48.106;11.548;2023-04-16T04:43:41;4.82;;;3.78;;
29812;SDS011;16707;48.106;11.548;2023-04-16T04:46:22;4.65;;;3.78;;
29812;SDS011;16707;48.106;11.548;2023-04-16T04:48:55;4.93;;;3.80;;
29812;SDS011;16707;48.106;11.548;2023-04-16T04:51:22;4.28;;;3.53;;
29812;SDS011;16707;48.106;11.548;2023-04-16T04:53:51;5.05;;;3.85;;
29812;SDS011;16707;48.106;11.548;2023-04-16T04:56:19;5.13;;;4.18;;
29812;SDS011;16707;48.106;11.548;2023-04-16T04:58:53;4.97;;;4.07;;
29812;SDS011;16707;48.106;11.548;2023-04-16T05:01:22;4.78;;;4.15;;
29812;SDS011;16707;48.106;11.548;2023-04-16T05:03:49;5.78;;;3.88;;
29812;SDS011;16707;48.106;11.548;2023-04-16T05:06:18;5.05;;;3.85;;
29812;SDS011;16707;48.106;11.548;2023-04-16T05:08:50;4.53;;;3.65;;
29812;SDS011;16707;48.106;11.548;2023-04-16T05:11:22;4.28;;;3.17;;
29812;SDS011;16707;48.106;11.548;2023-04-16T05:13:52;4.57;;;3.47;;
29812;SDS011;16707;48.106;11.548;2023-04-16T05:16:19;3.97;;;3.00;;
29812;SDS011;16707;48.106;11.548;2023-04-16T05:18:51;3.85;;;3.00;;
29812;SDS011;16707;48.106;11.548;2023-04-16T05:21:24;4.28;;;3.28;;
29812;SDS011;16707;48.106;11.548;2023-04-16T05:23:51;4.28;;;3.05;;
29812;SDS011;16707;48.106;11.548;2023-04-16T05:26:23;3.00;;;2.42;;
29812;SDS011;16707;48.106;11.548;2023-04-16T05:28:50;3.40;;;2.72;;
29812;SDS011;16707;48.106;11.548;2023-04-16T05:31:17;3.72;;;2.83;;
29812;SDS011;16707;48.106;11.548;2023-04-16T05:33:43;4.47;;;2.50;;
29812;SDS011;16707;48.106;11.548;2023-04-16T05:36:16;2.83;;;2.10;;
29812;SDS011;16707;48.106;11.548;2023-04-16T05:38:43;3.05;;;2.55;;
29812;SDS011;16707;48.106;11.548;2023-04-16T05:41:15;2.60;;;2.03;;
29812;SDS011;16707;48.106;11.548;2023-04-16T05:43:43;2.97;;;2.17;;
29812;SDS011;16707;48.106;11.548;2023-04-16T05:46:10;2.25;;;2.03;;
29812;SDS011;16707;48.106;11.548;2023-04-16T05:48:40;3.10;;;2.00;;
29812;SDS011;16707;48.106;11.548;2023-04-16T05:51:10;3.50;;;1.98;;
29812;SDS011;16707;48.106;11.548;2023-04-16T05:53:45;3.10;;;1.88;;
29812;SDS011;16707;48.106;11.548;2023-04-16T05:56:15;3.47;;;2.10;;
29812;SDS011;16707;48.106;11.548;2023-04-16T05:58:50;2.70;;;1.70;;
29812;SDS011;16707;48.106;11.548;2023-04-16T06:01:21;2.00;;;1.50;;
29812;SDS011;16707;48.106;11.548;2023-04-16T06:03:51;2.53;;;1.63;;
29812;SDS011;16707;48.106;11.548;2023-04-16T06:06:33;2.40;;;1.67;;
29812;SDS011;16707;48.106;11.548;2023-04-16T06:09:04;1.38;;;1.20;;
29812;SDS011;16707;48.106;11.548;2023-04-16T06:11:31;12.02;;;4.43;;
29812;SDS011;16707;48.106;11.548;2023-04-16T06:14:01;7.22;;;3.20;;
29812;SDS011;16707;48.106;11.548;2023-04-16T06:16:32;13.07;;;3.80;;
29812;SDS011;16707;48.106;11.548;2023-04-16T06:19:02;1.20;;;1.10;;
29812;SDS011;16707;48.106;11.548;2023-04-16T06:21:32;1.15;;;0.90;;
29812;SDS011;16707;48.106;11.548;2023-04-16T06:24:03;1.25;;;0.90;;
29812;SDS011;16707;48.106;11.548;2023-04-16T06:26:39;1.65;;;0.82;;
29812;SDS011;16707;48.106;11.548;2023-04-16T06:29:08;0.80;;;0.80;;
29812;SDS011;16707;48.106;11.548;2023-04-16T06:31:35;0.70;;;0.70;;
29812;SDS011;16707;48.106;11.548;2023-04-16T06:34:02;0.65;;;0.65;;
29812;SDS011;16707;48.106;11.548;2023-04-16T06:36:32;0.65;;;0.60;;
29812;SDS011;16707;48.106;11.548;2023-04-16T06:39:01;1.00;;;0.70;;
29812;SDS011;16707;48.106;11.548;2023-04-16T06:41:29;0.70;;;0.65;;
29812;SDS011;16707;48.106;11.548;2023-04-16T06:43:58;0.77;;;0.60;;
29812;SDS011;16707;48.106;11.548;2023-04-16T06:46:27;0.70;;;0.60;;
29812;SDS011;16707;48.106;11.548;2023-04-16T06:48:54;0.60;;;0.60;;
29812;SDS011;16707;48.106;11.548;2023-04-16T06:51:21;0.55;;;0.55;;
29812;SDS011;16707;48.106;11.548;2023-04-16T06:53:49;1.05;;;0.65;;
29812;SDS011;16707;48.106;11.548;2023-04-16T06:56:16;0.60;;;0.60;;
29812;SDS011;16707;48.106;11.548;2023-04-16T06:58:43;0.45;;;0.45;;
29812;SDS011;16707;48.106;11.548;2023-04-16T07:01:10;0.73;;;0.40;;
29812;SDS011;16707;48.106;11.548;2023-04-16T07:03:39;0.50;;;0.43;;
29812;SDS011;16707;48.106;11.548;2023-04-16T07:06:06;0.60;;;0.40;;
29812;SDS011;16707;48.106;11.548;2023-04-16T07:08:33;1.00;;;0.50;;
29812;SDS011;16707;48.106;11.548;2023-04-16T07:11:00;0.55;;;0.35;;
29812;SDS011;16707;48.106;11.548;2023-04-16T07:13:31;0.35;;;0.30;;
29812;SDS011;16707;48.106;11.548;2023-04-16T07:15:58;0.40;;;0.35;;
29812;SDS011;16707;48.106;11.548;2023-04-16T07:18:25;0.98;;;0.30;;
29812;SDS011;16707;48.106;11.548;2023-04-16T07:20:56;0.22;;;0.22;;
29812;SDS011;16707;48.106;11.548;2023-04-16T07:23:25;0.70;;;0.45;;
29812;SDS011;16707;48.106;11.548;2023-04-16T07:25:53;0.30;;;0.30;;
29812;SDS011;16707;48.106;11.548;2023-04-16T07:28:23;0.20;;;0.20;;
29812;SDS011;16707;48.106;11.548;2023-04-16T07:30:53;0.55;;;0.35;;
29812;SDS011;16707;48.106;11.548;2023-04-16T07:33:20;0.40;;;0.40;;
29812;SDS011;16707;48.106;11.548;2023-04-16T07:35:47;0.20;;;0.20;;
29812;SDS011;16707;48.106;11.548;2023-04-16T07:38:18;0.40;;;0.40;;
29812;SDS011;16707;48.106;11.548;2023-04-16T07:40:49;0.40;;;0.40;;
29812;SDS011;16707;48.106;11.548;2023-04-16T07:43:16;0.40;;;0.40;;
29812;SDS011;16707;48.106;11.548;2023-04-16T07:45:43;0.22;;;0.22;;
29812;SDS011;16707;48.106;11.548;2023-04-16T07:48:13;0.52;;;0.40;;
29812;SDS011;16707;48.106;11.548;2023-04-16T07:50:40;0.40;;;0.40;;
29812;SDS011;16707;48.106;11.548;2023-04-16T07:53:07;0.20;;;0.20;;
29812;SDS011;16707;48.106;11.548;2023-04-16T07:55:36;0.55;;;0.30;;
29812;SDS011;16707;48.106;11.548;2023-04-16T07:58:10;0.75;;;0.30;;
29812;SDS011;16707;48.106;11.548;2023-04-16T08:00:37;0.30;;;0.30;;
29812;SDS011;16707;48.106;11.548;2023-04-16T08:03:10;0.30;;;0.30;;
29812;SDS011;16707;48.106;11.548;2023-04-16T08:05:37;0.40;;;0.40;;
29812;SDS011;16707;48.106;11.548;2023-04-16T08:08:10;0.40;;;0.40;;
29812;SDS011;16707;48.106;11.548;2023-04-16T08:10:43;0.30;;;0.30;;
29812;SDS011;16707;48.106;11.548;2023-04-16T08:13:13;0.38;;;0.38;;
29812;SDS011;16707;48.106;11.548;2023-04-16T08:15:40;0.32;;;0.32;;
29812;SDS011;16707;48.106;11.548;2023-04-16T08:18:09;0.28;;;0.20;;
29812;SDS011;16707;48.106;11.548;2023-04-16T08:20:39;0.20;;;0.20;;
29812;SDS011;16707;48.106;11.548;2023-04-16T08:23:09;0.30;;;0.30;;
29812;SDS011;16707;48.106;11.548;2023-04-16T08:25:36;1.58;;;0.40;;
29812;SDS011;16707;48.106;11.548;2023-04-16T08:28:04;0.30;;;0.30;;
29812;SDS011;16707;48.106;11.548;2023-04-16T08:30:32;0.88;;;0.52;;
29812;SDS011;16707;48.106;11.548;2023-04-16T08:32:59;1.42;;;0.43;;
29812;SDS011;16707;48.106;11.548;2023-04-16T08:35:27;0.40;;;0.40;;
29812;SDS011;16707;48.106;11.548;2023-04-16T08:37:54;0.32;;;0.32;;
29812;SDS011;16707;48.106;11.548;2023-04-16T08:40:24;0.50;;;0.40;;
29812;SDS011;16707;48.106;11.548;2023-04-16T08:42:54;0.80;;;0.30;;
29812;SDS011;16707;48.106;11.548;2023-04-16T08:45:26;0.60;;;0.40;;
29812;SDS011;16707;48.106;11.548;2023-04-16T08:47:53;0.65;;;0.40;;
29812;SDS011;16707;48.106;11.548;2023-04-16T08:50:23;1.42;;;0.38;;
29812;SDS011;16707;48.106;11.548;2023-04-16T08:52:52;0.55;;;0.47;;
29812;SDS011;16707;48.106;11.548;2023-04-16T08:55:25;0.57;;;0.45;;
29812;SDS011;16707;48.106;11.548;2023-04-16T08:58:02;0.30;;;0.30;;
29812;SDS011;16707;48.106;11.548;2023-04-16T09:00:35;1.25;;;0.40;;
29812;SDS011;16707;48.106;11.548;2023-04-16T09:03:05;0.17;;;0.17;;
29812;SDS011;16707;48.106;11.548;2023-04-16T09:05:36;0.98;;;0.40;;
29812;SDS011;16707;48.106;11.548;2023-04-16T09:08:04;0.30;;;0.30;;
29812;SDS011;16707;48.106;11.548;2023-04-16T09:10:32;0.38;;;0.30;;
29812;SDS011;16707;48.106;11.548;2023-04-16T09:12:59;1.30;;;0.50;;
29812;SDS011;16707;48.106;11.548;2023-04-16T09:15:26;0.47;;;0.30;;
29812;SDS011;16707;48.106;11.548;2023-04-16T09:17:59;0.73;;;0.73;;
29812;SDS011;16707;48.106;11.548;2023-04-16T09:20:29;0.32;;;0.28;;
29812;SDS011;16707;48.106;11.548;2023-04-16T09:22:57;0.20;;;0.10;;
29812;SDS011;16707;48.106;11.548;2023-04-16T09:25:27;0.63;;;0.30;;
29812;SDS011;16707;48.106;11.548;2023-04-16T09:28:03;1.20;;;0.30;;
29812;SDS011;16707;48.106;11.548;2023-04-16T09:30:34;0.25;;;0.25;;
29812;SDS011;16707;48.106;11.548;2023-04-16T09:33:12;0.10;;;0.10;;
29812;SDS011;16707;48.106;11.548;2023-04-16T09:35:44;0.20;;;0.20;;
29812;SDS011;16707;48.106;11.548;2023-04-16T09:38:15;0.32;;;0.30;;
29812;SDS011;16707;48.106;11.548;2023-04-16T09:40:45;0.38;;;0.38;;
29812;SDS011;16707;48.106;11.548;2023-04-16T09:43:13;0.20;;;0.20;;
29812;SDS011;16707;48.106;11.548;2023-04-16T09:45:52;0.38;;;0.30;;
29812;SDS011;16707;48.106;11.548;2023-04-16T09:48:28;0.20;;;0.20;;
29812;SDS011;16707;48.106;11.548;2023-04-16T09:50:56;0.75;;;0.30;;
29812;SDS011;16707;48.106;11.548;2023-04-16T09:53:23;0.50;;;0.30;;
29812;SDS011;16707;48.106;11.548;2023-04-16T09:55:51;0.50;;;0.50;;
29812;SDS011;16707;48.106;11.548;2023-04-16T09:58:18;0.63;;;0.38;;
29812;SDS011;16707;48.106;11.548;2023-04-16T10:00:54;0.20;;;0.20;;
29812;SDS011;16707;48.106;11.548;2023-04-16T10:03:30;0.40;;;0.40;;
29812;SDS011;16707;48.106;11.548;2023-04-16T10:05:58;0.52;;;0.40;;
29812;SDS011;16707;48.106;11.548;2023-04-16T10:08:27;0.30;;;0.30;;
29812;SDS011;16707;48.106;11.548;2023-04-16T10:10:54;0.40;;;0.30;;
29812;SDS011;16707;48.106;11.548;2023-04-16T10:13:22;1.23;;;0.93;;
29812;SDS011;16707;48.106;11.548;2023-04-16T10:15:52;1.15;;;0.70;;
29812;SDS011;16707;48.106;11.548;2023-04-16T10:18:21;0.68;;;0.40;;
29812;SDS011;16707;48.106;11.548;2023-04-16T10:20:50;0.40;;;0.30;;
29812;SDS011;16707;48.106;11.548;2023-04-16T10:23:20;0.30;;;0.25;;
29812;SDS011;16707;48.106;11.548;2023-04-16T10:25:50;0.68;;;0.50;;
29812;SDS011;16707;48.106;11.548;2023-04-16T10:28:19;0.52;;;0.50;;
29812;SDS011;16707;48.106;11.548;2023-04-16T10:30:49;0.93;;;0.65;;
29812;SDS011;16707;48.106;11.548;2023-04-16T10:33:19;0.30;;;0.30;;
29812;SDS011;16707;48.106;11.548;2023-04-16T10:38:32;0.30;;;0.30;;
29812;SDS011;16707;48.106;11.548;2023-04-16T10:41:05;0.53;;;0.53;;
29812;SDS011;16707;48.106;11.548;2023-04-16T10:43:37;0.65;;;0.32;;
29812;SDS011;16707;48.106;11.548;2023-04-16T10:46:21;0.40;;;0.40;;
29812;SDS011;16707;48.106;11.548;2023-04-16T10:48:59;0.30;;;0.30;;
29812;SDS011;16707;48.106;11.548;2023-04-16T10:51:31;0.20;;;0.20;;
29812;SDS011;16707;48.106;11.548;2023-04-16T10:54:03;0.30;;;0.30;;
29812;SDS011;16707;48.106;11.548;2023-04-16T10:56:46;0.38;;;0.38;;
29812;SDS011;16707;48.106;11.548;2023-04-16T10:59:16;1.25;;;0.60;;
29812;SDS011;16707;48.106;11.548;2023-04-16T11:01:45;0.40;;;0.40;;
29812;SDS011;16707;48.106;11.548;2023-04-16T11:04:26;0.30;;;0.30;;
29812;SDS011;16707;48.106;11.548;2023-04-16T11:07:05;0.60;;;0.40;;
29812;SDS011;16707;48.106;11.548;2023-04-16T11:09:43;0.50;;;0.28;;
29812;SDS011;16707;48.106;11.548;2023-04-16T11:12:17;0.25;;;0.25;;
29812;SDS011;16707;48.106;11.548;2023-04-16T11:14:46;0.20;;;0.20;;
29812;SDS011;16707;48.106;11.548;2023-04-16T11:17:14;0.20;;;0.20;;
29812;SDS011;16707;48.106;11.548;2023-04-16T11:19:42;0.30;;;0.30;;
29812;SDS011;16707;48.106;11.548;2023-04-16T11:22:14;0.50;;;0.43;;
29812;SDS011;16707;48.106;11.548;2023-04-16T11:24:52;0.40;;;0.40;;
29812;SDS011;16707;48.106;11.548;2023-04-16T11:27:23;0.43;;;0.40;;
29812;SDS011;16707;48.106;11.548;2023-04-16T11:30:01;0.52;;;0.47;;
29812;SDS011;16707;48.106;11.548;2023-04-16T11:32:30;0.50;;;0.50;;
29812;SDS011;16707;48.106;11.548;2023-04-16T11:35:04;0.65;;;0.47;;
29812;SDS011;16707;48.106;11.548;2023-04-16T11:37:46;0.40;;;0.40;;
29812;SDS011;16707;48.106;11.548;2023-04-16T11:40:16;0.40;;;0.40;;
29812;SDS011;16707;48.106;11.548;2023-04-16T11:42:44;0.30;;;0.22;;
29812;SDS011;16707;48.106;11.548;2023-04-16T11:45:14;0.47;;;0.40;;
29812;SDS011;16707;48.106;11.548;2023-04-16T11:47:43;0.50;;;0.50;;
29812;SDS011;16707;48.106;11.548;2023-04-16T11:50:16;0.90;;;0.50;;
29812;SDS011;16707;48.106;11.548;2023-04-16T11:52:49;1.17;;;0.50;;
29812;SDS011;16707;48.106;11.548;2023-04-16T11:55:17;0.47;;;0.47;;
29812;SDS011;16707;48.106;11.548;2023-04-16T11:57:45;0.55;;;0.38;;
29812;SDS011;16707;48.106;11.548;2023-04-16T12:00:13;0.40;;;0.40;;
29812;SDS011;16707;48.106;11.548;2023-04-16T12:02:41;0.50;;;0.50;;
29812;SDS011;16707;48.106;11.548;2023-04-16T12:05:25;0.50;;;0.47;;
29812;SDS011;16707;48.106;11.548;2023-04-16T12:07:58;0.52;;;0.40;;
29812;SDS011;16707;48.106;11.548;2023-04-16T12:10:26;0.80;;;0.40;;
29812;SDS011;16707;48.106;11.548;2023-04-16T12:12:57;0.50;;;0.50;;
29812;SDS011;16707;48.106;11.548;2023-04-16T12:15:45;0.70;;;0.60;;
29812;SDS011;16707;48.106;11.548;2023-04-16T12:18:14;0.73;;;0.60;;
29812;SDS011;16707;48.106;11.548;2023-04-16T12:20:41;0.60;;;0.45;;
29812;SDS011;16707;48.106;11.548;2023-04-16T12:23:22;0.40;;;0.40;;
29812;SDS011;16707;48.106;11.548;2023-04-16T12:25:52;0.65;;;0.50;;
29812;SDS011;16707;48.106;11.548;2023-04-16T12:28:26;0.80;;;0.60;;
29812;SDS011;16707;48.106;11.548;2023-04-16T12:31:00;0.77;;;0.60;;
29812;SDS011;16707;48.106;11.548;2023-04-16T12:33:28;0.70;;;0.60;;
29812;SDS011;16707;48.106;11.548;2023-04-16T12:35:58;0.95;;;0.60;;
29812;SDS011;16707;48.106;11.548;2023-04-16T12:38:28;1.10;;;0.65;;
29812;SDS011;16707;48.106;11.548;2023-04-16T12:40:58;0.60;;;0.60;;
29812;SDS011;16707;48.106;11.548;2023-04-16T12:43:30;0.60;;;0.50;;
29812;SDS011;16707;48.106;11.548;2023-04-16T12:45:57;1.20;;;0.90;;
29812;SDS011;16707;48.106;11.548;2023-04-16T12:48:25;0.75;;;0.50;;
29812;SDS011;16707;48.106;11.548;2023-04-16T12:50:52;0.40;;;0.40;;
29812;SDS011;16707;48.106;11.548;2023-04-16T12:53:28;0.32;;;0.32;;
29812;SDS011;16707;48.106;11.548;2023-04-16T12:55:55;1.17;;;0.40;;
29812;SDS011;16707;48.106;11.548;2023-04-16T12:58:23;0.43;;;0.43;;
29812;SDS011;16707;48.106;11.548;2023-04-16T13:00:51;1.77;;;1.30;;
29812;SDS011;16707;48.106;11.548;2023-04-16T13:03:17;2.47;;;0.70;;
29812;SDS011;16707;48.106;11.548;2023-04-16T13:05:45;0.43;;;0.40;;
29812;SDS011;16707;48.106;11.548;2023-04-16T13:08:16;0.55;;;0.50;;
29812;SDS011;16707;48.106;11.548;2023-04-16T13:10:47;1.08;;;0.50;;
29812;SDS011;16707;48.106;11.548;2023-04-16T13:13:17;0.82;;;0.77;;
29812;SDS011;16707;48.106;11.548;2023-04-16T13:15:43;0.98;;;0.70;;
29812;SDS011;16707;48.106;11.548;2023-04-16T13:18:13;1.08;;;0.98;;
29812;SDS011;16707;48.106;11.548;2023-04-16T13:20:43;1.02;;;0.60;;
29812;SDS011;16707;48.106;11.548;2023-04-16T13:23:13;0.55;;;0.55;;
29812;SDS011;16707;48.106;11.548;2023-04-16T13:25:41;1.17;;;0.52;;
29812;SDS011;16707;48.106;11.548;2023-04-16T13:28:10;3.33;;;1.27;;
29812;SDS011;16707;48.106;11.548;2023-04-16T13:30:40;1.23;;;0.85;;
29812;SDS011;16707;48.106;11.548;2023-04-16T13:33:08;0.40;;;0.32;;
29812;SDS011;16707;48.106;11.548;2023-04-16T13:35:36;0.65;;;0.43;;
29812;SDS011;16707;48.106;11.548;2023-04-16T13:38:06;1.25;;;0.60;;
29812;SDS011;16707;48.106;11.548;2023-04-16T13:40:33;0.55;;;0.40;;
29812;SDS011;16707;48.106;11.548;2023-04-16T13:43:07;0.47;;;0.47;;
29812;SDS011;16707;48.106;11.548;2023-04-16T13:45:41;0.50;;;0.40;;
29812;SDS011;16707;48.106;11.548;2023-04-16T13:48:11;1.05;;;0.47;;
29812;SDS011;16707;48.106;11.548;2023-04-16T13:50:38;0.93;;;0.65;;
29812;SDS011;16707;48.106;11.548;2023-04-16T13:53:07;2.03;;;1.50;;
29812;SDS011;16707;48.106;11.548;2023-04-16T13:55:37;1.20;;;0.70;;
29812;SDS011;16707;48.106;11.548;2023-04-16T13:58:04;0.77;;;0.70;;
29812;SDS011;16707;48.106;11.548;2023-04-16T14:00:32;0.40;;;0.40;;
29812;SDS011;16707;48.106;11.548;2023-04-16T14:03:00;0.90;;;0.47;;
29812;SDS011;16707;48.106;11.548;2023-04-16T14:05:29;0.30;;;0.30;;
29812;SDS011;16707;48.106;11.548;2023-04-16T14:08:00;0.55;;;0.50;;
29812;SDS011;16707;48.106;11.548;2023-04-16T14:10:30;0.87;;;0.30;;
29812;SDS011;16707;48.106;11.548;2023-04-16T14:13:00;0.40;;;0.20;;
29812;SDS011;16707;48.106;11.548;2023-04-16T14:15:28;1.02;;;0.50;;
29812;SDS011;16707;48.106;11.548;2023-04-16T14:17:55;0.55;;;0.40;;
29812;SDS011;16707;48.106;11.548;2023-04-16T14:20:23;0.85;;;0.70;;
29812;SDS011;16707;48.106;11.548;2023-04-16T14:22:53;0.82;;;0.43;;
29812;SDS011;16707;48.106;11.548;2023-04-16T14:25:20;0.50;;;0.50;;
29812;SDS011;16707;48.106;11.548;2023-04-16T14:27:47;0.60;;;0.60;;
29812;SDS011;16707;48.106;11.548;2023-04-16T14:30:17;0.70;;;0.40;;
29812;SDS011;16707;48.106;11.548;2023-04-16T14:32:45;0.90;;;0.70;;
29812;SDS011;16707;48.106;11.548;2023-04-16T14:35:15;0.32;;;0.32;;
29812;SDS011;16707;48.106;11.548;2023-04-16T14:37:43;0.77;;;0.70;;
29812;SDS011;16707;48.106;11.548;2023-04-16T14:40:11;0.85;;;0.50;;
29812;SDS011;16707;48.106;11.548;2023-04-16T14:42:41;0.70;;;0.70;;
29812;SDS011;16707;48.106;11.548;2023-04-16T14:45:08;0.50;;;0.50;;
29812;SDS011;16707;48.106;11.548;2023-04-16T14:47:38;1.02;;;0.47;;
29812;SDS011;16707;48.106;11.548;2023-04-16T14:50:12;1.75;;;0.73;;
29812;SDS011;16707;48.106;11.548;2023-04-16T14:52:40;0.90;;;0.70;;
29812;SDS011;16707;48.106;11.548;2023-04-16T14:55:11;0.50;;;0.50;;
29812;SDS011;16707;48.106;11.548;2023-04-16T14:57:38;0.60;;;0.60;;